sensor_id;sensor_type;location;lat;lon;timestamp;P1;durP1;ratioP1;P2;durP2;ratioP2
6185;SDS011;3126;52.738;8.316;2023-06-05T00:03:49;7.40;;;5.47;;
6185;SDS011;3126;52.738;8.316;2023-06-05T00:08:50;6.57;;;5.07;;
6185;SDS011;3126;52.738;8.316;2023-06-05T00:13:51;8.07;;;5.13;;
6185;SDS011;3126;52.738;8.316;2023-06-05T00:18:51;9.07;;;5.80;;
6185;SDS011;3126;52.738;8.316;2023-06-05T00:23:52;8.80;;;5.65;;
6185;SDS011;3126;52.738;8.316;2023-06-05T00:28:53;9.43;;;5.57;;
6185;SDS011;3126;52.738;8.316;2023-06-05T00:33:53;11.02;;;5.93;;
6185;SDS011;3126;52.738;8.316;2023-06-05T00:38:54;9.50;;;6.05;;
6185;SDS011;3126;52.738;8.316;2023-06-05T00:43:54;8.23;;;5.68;;
6185;SDS011;3126;52.738;8.316;2023-06-05T00:48:55;9.40;;;6.43;;
6185;SDS011;3126;52.738;8.316;2023-06-05T00:53:56;12.35;;;6.10;;
6185;SDS011;3126;52.738;8.316;2023-06-05T00:58:57;13.02;;;6.78;;
6185;SDS011;3126;52.738;8.316;2023-06-05T01:03:58;11.00;;;6.45;;
6185;SDS011;3126;52.738;8.316;2023-06-05T01:08:58;11.18;;;6.20;;
6185;SDS011;3126;52.738;8.316;2023-06-05T01:14:08;10.40;;;6.70;;
6185;SDS011;3126;52.738;8.316;2023-06-05T01:19:13;10.32;;;6.78;;
6185;SDS011;3126;52.738;8.316;2023-06-05T01:24:14;13.48;;;6.78;;
6185;SDS011;3126;52.738;8.316;2023-06-05T01:29:15;11.60;;;6.70;;
6185;SDS011;3126;52.738;8.316;2023-06-05T01:34:16;11.60;;;7.32;;
6185;SDS011;3126;52.738;8.316;2023-06-05T01:39:19;11.88;;;7.50;;
6185;SDS011;3126;52.738;8.316;2023-06-05T01:44:22;12.88;;;7.38;;
6185;SDS011;3126;52.738;8.316;2023-06-05T01:49:23;11.98;;;7.40;;
6185;SDS011;3126;52.738;8.316;2023-06-05T01:54:24;11.57;;;7.57;;
6185;SDS011;3126;52.738;8.316;2023-06-05T01:59:26;10.77;;;7.32;;
6185;SDS011;3126;52.738;8.316;2023-06-05T02:04:27;13.57;;;6.93;;
6185;SDS011;3126;52.738;8.316;2023-06-05T02:09:29;12.27;;;6.40;;
6185;SDS011;3126;52.738;8.316;2023-06-05T02:14:33;10.73;;;6.97;;
6185;SDS011;3126;52.738;8.316;2023-06-05T02:19:37;11.02;;;7.68;;
6185;SDS011;3126;52.738;8.316;2023-06-05T02:24:37;13.32;;;7.57;;
6185;SDS011;3126;52.738;8.316;2023-06-05T02:29:38;11.73;;;7.43;;
6185;SDS011;3126;52.738;8.316;2023-06-05T02:34:39;10.55;;;6.63;;
6185;SDS011;3126;52.738;8.316;2023-06-05T02:39:39;11.25;;;6.47;;
6185;SDS011;3126;52.738;8.316;2023-06-05T02:44:40;13.13;;;7.10;;
6185;SDS011;3126;52.738;8.316;2023-06-05T02:49:40;12.35;;;7.15;;
6185;SDS011;3126;52.738;8.316;2023-06-05T02:54:41;8.90;;;5.85;;
6185;SDS011;3126;52.738;8.316;2023-06-05T02:59:41;11.35;;;6.90;;
6185;SDS011;3126;52.738;8.316;2023-06-05T03:04:42;12.73;;;6.97;;
6185;SDS011;3126;52.738;8.316;2023-06-05T03:09:42;10.73;;;6.10;;
6185;SDS011;3126;52.738;8.316;2023-06-05T03:14:43;10.23;;;7.00;;
6185;SDS011;3126;52.738;8.316;2023-06-05T03:19:44;11.95;;;6.88;;
6185;SDS011;3126;52.738;8.316;2023-06-05T03:24:45;12.00;;;6.82;;
6185;SDS011;3126;52.738;8.316;2023-06-05T03:29:45;13.88;;;7.18;;
6185;SDS011;3126;52.738;8.316;2023-06-05T03:34:46;15.60;;;7.40;;
6185;SDS011;3126;52.738;8.316;2023-06-05T03:39:48;13.85;;;7.25;;
6185;SDS011;3126;52.738;8.316;2023-06-05T03:44:49;13.90;;;6.75;;
6185;SDS011;3126;52.738;8.316;2023-06-05T03:49:50;15.98;;;6.47;;
6185;SDS011;3126;52.738;8.316;2023-06-05T03:54:52;11.73;;;6.47;;
6185;SDS011;3126;52.738;8.316;2023-06-05T03:59:53;15.50;;;7.20;;
6185;SDS011;3126;52.738;8.316;2023-06-05T04:04:54;13.93;;;8.20;;
6185;SDS011;3126;52.738;8.316;2023-06-05T04:09:55;15.70;;;7.70;;
6185;SDS011;3126;52.738;8.316;2023-06-05T04:14:55;15.77;;;7.80;;
6185;SDS011;3126;52.738;8.316;2023-06-05T04:19:56;13.43;;;7.50;;
6185;SDS011;3126;52.738;8.316;2023-06-05T04:24:56;17.23;;;8.02;;
6185;SDS011;3126;52.738;8.316;2023-06-05T04:29:57;16.63;;;7.53;;
6185;SDS011;3126;52.738;8.316;2023-06-05T04:34:58;15.05;;;7.15;;
6185;SDS011;3126;52.738;8.316;2023-06-05T04:39:58;12.10;;;7.20;;
6185;SDS011;3126;52.738;8.316;2023-06-05T04:44:59;14.15;;;7.82;;
6185;SDS011;3126;52.738;8.316;2023-06-05T04:50:04;13.50;;;7.30;;
6185;SDS011;3126;52.738;8.316;2023-06-05T04:55:06;12.35;;;6.40;;
6185;SDS011;3126;52.738;8.316;2023-06-05T05:00:07;12.30;;;6.05;;
6185;SDS011;3126;52.738;8.316;2023-06-05T05:05:10;10.13;;;6.28;;
6185;SDS011;3126;52.738;8.316;2023-06-05T05:10:15;14.23;;;6.57;;
6185;SDS011;3126;52.738;8.316;2023-06-05T05:15:16;15.63;;;6.55;;
6185;SDS011;3126;52.738;8.316;2023-06-05T05:20:17;11.50;;;6.45;;
6185;SDS011;3126;52.738;8.316;2023-06-05T05:25:18;13.70;;;7.65;;
6185;SDS011;3126;52.738;8.316;2023-06-05T05:30:19;12.57;;;6.28;;
6185;SDS011;3126;52.738;8.316;2023-06-05T05:35:20;11.52;;;6.78;;
6185;SDS011;3126;52.738;8.316;2023-06-05T05:40:20;9.75;;;5.80;;
6185;SDS011;3126;52.738;8.316;2023-06-05T05:45:21;11.23;;;5.82;;
6185;SDS011;3126;52.738;8.316;2023-06-05T05:50:21;9.25;;;6.18;;
6185;SDS011;3126;52.738;8.316;2023-06-05T05:55:22;9.27;;;5.60;;
6185;SDS011;3126;52.738;8.316;2023-06-05T06:00:23;8.63;;;5.68;;
6185;SDS011;3126;52.738;8.316;2023-06-05T06:05:24;11.55;;;5.72;;
6185;SDS011;3126;52.738;8.316;2023-06-05T06:10:25;9.65;;;5.95;;
6185;SDS011;3126;52.738;8.316;2023-06-05T06:15:26;9.38;;;5.50;;
6185;SDS011;3126;52.738;8.316;2023-06-05T06:20:28;10.05;;;6.50;;
6185;SDS011;3126;52.738;8.316;2023-06-05T06:25:29;11.95;;;6.28;;
6185;SDS011;3126;52.738;8.316;2023-06-05T06:30:31;12.93;;;7.22;;
6185;SDS011;3126;52.738;8.316;2023-06-05T06:35:32;10.82;;;6.85;;
6185;SDS011;3126;52.738;8.316;2023-06-05T06:40:33;14.63;;;7.75;;
6185;SDS011;3126;52.738;8.316;2023-06-05T06:45:34;11.10;;;7.28;;
6185;SDS011;3126;52.738;8.316;2023-06-05T06:50:34;11.68;;;6.55;;
6185;SDS011;3126;52.738;8.316;2023-06-05T06:55:35;11.38;;;6.85;;
6185;SDS011;3126;52.738;8.316;2023-06-05T07:00:36;12.65;;;7.55;;
6185;SDS011;3126;52.738;8.316;2023-06-05T07:05:36;11.25;;;6.47;;
6185;SDS011;3126;52.738;8.316;2023-06-05T07:10:39;11.98;;;7.40;;
6185;SDS011;3126;52.738;8.316;2023-06-05T07:15:40;12.27;;;7.07;;
6185;SDS011;3126;52.738;8.316;2023-06-05T07:20:41;10.18;;;7.68;;
6185;SDS011;3126;52.738;8.316;2023-06-05T07:25:41;18.02;;;8.18;;
6185;SDS011;3126;52.738;8.316;2023-06-05T07:30:42;10.00;;;6.80;;
6185;SDS011;3126;52.738;8.316;2023-06-05T07:35:45;11.23;;;6.38;;
6185;SDS011;3126;52.738;8.316;2023-06-05T07:40:46;8.93;;;5.05;;
6185;SDS011;3126;52.738;8.316;2023-06-05T07:45:46;9.80;;;5.45;;
6185;SDS011;3126;52.738;8.316;2023-06-05T07:50:47;9.15;;;5.88;;
6185;SDS011;3126;52.738;8.316;2023-06-05T07:55:48;7.72;;;5.05;;
6185;SDS011;3126;52.738;8.316;2023-06-05T08:00:48;8.85;;;5.28;;
6185;SDS011;3126;52.738;8.316;2023-06-05T08:05:49;6.45;;;5.15;;
6185;SDS011;3126;52.738;8.316;2023-06-05T08:10:51;10.15;;;5.38;;
6185;SDS011;3126;52.738;8.316;2023-06-05T08:15:51;7.10;;;4.40;;
6185;SDS011;3126;52.738;8.316;2023-06-05T08:20:52;7.43;;;4.95;;
6185;SDS011;3126;52.738;8.316;2023-06-05T08:25:53;9.63;;;5.32;;
6185;SDS011;3126;52.738;8.316;2023-06-05T08:30:54;7.60;;;5.10;;
6185;SDS011;3126;52.738;8.316;2023-06-05T08:35:54;7.25;;;5.10;;
6185;SDS011;3126;52.738;8.316;2023-06-05T08:41:01;6.63;;;4.72;;
6185;SDS011;3126;52.738;8.316;2023-06-05T08:46:06;7.80;;;4.78;;
6185;SDS011;3126;52.738;8.316;2023-06-05T08:51:11;7.47;;;4.97;;
6185;SDS011;3126;52.738;8.316;2023-06-05T08:56:13;6.82;;;4.88;;
6185;SDS011;3126;52.738;8.316;2023-06-05T09:01:14;7.03;;;3.85;;
6185;SDS011;3126;52.738;8.316;2023-06-05T09:06:16;5.38;;;4.28;;
6185;SDS011;3126;52.738;8.316;2023-06-05T09:11:27;6.15;;;4.03;;
6185;SDS011;3126;52.738;8.316;2023-06-05T09:16:33;6.32;;;3.85;;
6185;SDS011;3126;52.738;8.316;2023-06-05T09:21:34;6.07;;;3.53;;
6185;SDS011;3126;52.738;8.316;2023-06-05T09:32:00;4.25;;;3.70;;
6185;SDS011;3126;52.738;8.316;2023-06-05T09:37:06;6.20;;;3.83;;
6185;SDS011;3126;52.738;8.316;2023-06-05T09:42:11;6.25;;;4.25;;
6185;SDS011;3126;52.738;8.316;2023-06-05T09:47:11;9.25;;;3.40;;
6185;SDS011;3126;52.738;8.316;2023-06-05T09:52:13;7.03;;;3.53;;
6185;SDS011;3126;52.738;8.316;2023-06-05T09:57:14;6.05;;;3.40;;
6185;SDS011;3126;52.738;8.316;2023-06-05T10:02:15;6.63;;;3.25;;
6185;SDS011;3126;52.738;8.316;2023-06-05T10:07:17;5.68;;;3.30;;
6185;SDS011;3126;52.738;8.316;2023-06-05T10:12:18;7.80;;;3.20;;
6185;SDS011;3126;52.738;8.316;2023-06-05T10:17:20;4.88;;;2.83;;
6185;SDS011;3126;52.738;8.316;2023-06-05T10:22:21;7.40;;;3.00;;
6185;SDS011;3126;52.738;8.316;2023-06-05T10:38:21;4.70;;;3.03;;
6185;SDS011;3126;52.738;8.316;2023-06-05T10:49:17;7.07;;;3.40;;
6185;SDS011;3126;52.738;8.316;2023-06-05T10:54:11;6.65;;;3.17;;
6185;SDS011;3126;52.738;8.316;2023-06-05T10:59:16;5.88;;;3.65;;
6185;SDS011;3126;52.738;8.316;2023-06-05T11:04:20;4.55;;;2.78;;
6185;SDS011;3126;52.738;8.316;2023-06-05T11:09:20;3.63;;;2.45;;
6185;SDS011;3126;52.738;8.316;2023-06-05T11:14:21;4.43;;;2.42;;
6185;SDS011;3126;52.738;8.316;2023-06-05T11:24:22;5.22;;;2.60;;
6185;SDS011;3126;52.738;8.316;2023-06-05T11:29:23;3.45;;;2.28;;
6185;SDS011;3126;52.738;8.316;2023-06-05T11:34:26;3.78;;;2.25;;
6185;SDS011;3126;52.738;8.316;2023-06-05T11:39:41;4.47;;;2.38;;
6185;SDS011;3126;52.738;8.316;2023-06-05T11:44:43;4.72;;;2.50;;
6185;SDS011;3126;52.738;8.316;2023-06-05T11:49:43;4.97;;;2.40;;
6185;SDS011;3126;52.738;8.316;2023-06-05T11:54:44;3.67;;;2.10;;
6185;SDS011;3126;52.738;8.316;2023-06-05T11:59:53;4.78;;;2.33;;
6185;SDS011;3126;52.738;8.316;2023-06-05T12:04:53;4.15;;;2.45;;
6185;SDS011;3126;52.738;8.316;2023-06-05T12:09:55;4.43;;;2.53;;
6185;SDS011;3126;52.738;8.316;2023-06-05T12:14:57;3.88;;;2.70;;
6185;SDS011;3126;52.738;8.316;2023-06-05T12:20:16;3.33;;;2.25;;
6185;SDS011;3126;52.738;8.316;2023-06-05T12:25:18;4.78;;;2.20;;
6185;SDS011;3126;52.738;8.316;2023-06-05T12:30:19;3.67;;;2.17;;
6185;SDS011;3126;52.738;8.316;2023-06-05T12:40:20;3.78;;;2.28;;
6185;SDS011;3126;52.738;8.316;2023-06-05T12:45:21;2.45;;;2.00;;
6185;SDS011;3126;52.738;8.316;2023-06-05T12:50:22;5.13;;;2.47;;
6185;SDS011;3126;52.738;8.316;2023-06-05T12:55:22;2.58;;;2.13;;
6185;SDS011;3126;52.738;8.316;2023-06-05T13:00:23;4.68;;;2.83;;
6185;SDS011;3126;52.738;8.316;2023-06-05T13:05:24;3.80;;;2.17;;
6185;SDS011;3126;52.738;8.316;2023-06-05T13:10:25;4.75;;;2.17;;
6185;SDS011;3126;52.738;8.316;2023-06-05T13:15:25;6.05;;;2.40;;
6185;SDS011;3126;52.738;8.316;2023-06-05T13:20:26;4.53;;;2.13;;
6185;SDS011;3126;52.738;8.316;2023-06-05T13:25:27;4.35;;;2.10;;
6185;SDS011;3126;52.738;8.316;2023-06-05T13:30:28;2.42;;;2.00;;
6185;SDS011;3126;52.738;8.316;2023-06-05T13:35:29;2.88;;;1.98;;
6185;SDS011;3126;52.738;8.316;2023-06-05T13:40:29;2.95;;;2.28;;
6185;SDS011;3126;52.738;8.316;2023-06-05T13:45:32;3.67;;;2.25;;
6185;SDS011;3126;52.738;8.316;2023-06-05T13:50:32;4.90;;;2.33;;
6185;SDS011;3126;52.738;8.316;2023-06-05T13:55:33;4.00;;;1.88;;
6185;SDS011;3126;52.738;8.316;2023-06-05T14:00:33;4.40;;;2.53;;
6185;SDS011;3126;52.738;8.316;2023-06-05T14:05:34;3.05;;;2.47;;
6185;SDS011;3126;52.738;8.316;2023-06-05T14:10:34;4.65;;;2.53;;
6185;SDS011;3126;52.738;8.316;2023-06-05T14:15:36;4.78;;;2.58;;
6185;SDS011;3126;52.738;8.316;2023-06-05T14:20:37;2.47;;;2.28;;
6185;SDS011;3126;52.738;8.316;2023-06-05T14:25:37;4.30;;;2.42;;
6185;SDS011;3126;52.738;8.316;2023-06-05T14:30:38;3.63;;;2.42;;
6185;SDS011;3126;52.738;8.316;2023-06-05T14:35:38;5.28;;;2.00;;
6185;SDS011;3126;52.738;8.316;2023-06-05T14:40:39;4.50;;;2.28;;
6185;SDS011;3126;52.738;8.316;2023-06-05T14:45:41;2.72;;;2.40;;
6185;SDS011;3126;52.738;8.316;2023-06-05T14:50:42;5.20;;;2.97;;
6185;SDS011;3126;52.738;8.316;2023-06-05T14:55:43;4.63;;;3.03;;
6185;SDS011;3126;52.738;8.316;2023-06-05T15:00:44;4.80;;;3.78;;
6185;SDS011;3126;52.738;8.316;2023-06-05T15:05:46;5.13;;;3.65;;
6185;SDS011;3126;52.738;8.316;2023-06-05T15:10:46;5.40;;;3.55;;
6185;SDS011;3126;52.738;8.316;2023-06-05T15:15:47;6.80;;;3.95;;
6185;SDS011;3126;52.738;8.316;2023-06-05T15:20:48;6.63;;;3.97;;
6185;SDS011;3126;52.738;8.316;2023-06-05T15:25:49;4.88;;;3.80;;
6185;SDS011;3126;52.738;8.316;2023-06-05T15:30:49;4.22;;;3.80;;
6185;SDS011;3126;52.738;8.316;2023-06-05T15:35:50;6.15;;;3.92;;
6185;SDS011;3126;52.738;8.316;2023-06-05T15:40:51;5.88;;;4.57;;
6185;SDS011;3126;52.738;8.316;2023-06-05T15:45:51;5.25;;;4.30;;
6185;SDS011;3126;52.738;8.316;2023-06-05T15:50:52;4.10;;;3.70;;
6185;SDS011;3126;52.738;8.316;2023-06-05T15:55:54;9.82;;;3.90;;
6185;SDS011;3126;52.738;8.316;2023-06-05T16:00:55;7.57;;;3.63;;
6185;SDS011;3126;52.738;8.316;2023-06-05T16:05:55;5.18;;;3.67;;
6185;SDS011;3126;52.738;8.316;2023-06-05T16:10:56;7.18;;;3.90;;
6185;SDS011;3126;52.738;8.316;2023-06-05T16:16:00;7.50;;;4.00;;
6185;SDS011;3126;52.738;8.316;2023-06-05T16:21:01;3.75;;;3.38;;
6185;SDS011;3126;52.738;8.316;2023-06-05T16:26:02;6.50;;;3.47;;
6185;SDS011;3126;52.738;8.316;2023-06-05T16:31:02;7.97;;;3.85;;
6185;SDS011;3126;52.738;8.316;2023-06-05T16:36:03;4.95;;;3.40;;
6185;SDS011;3126;52.738;8.316;2023-06-05T16:41:03;6.78;;;3.58;;
6185;SDS011;3126;52.738;8.316;2023-06-05T16:46:04;4.80;;;3.47;;
6185;SDS011;3126;52.738;8.316;2023-06-05T16:51:05;5.45;;;3.10;;
6185;SDS011;3126;52.738;8.316;2023-06-05T16:56:06;6.13;;;3.28;;
6185;SDS011;3126;52.738;8.316;2023-06-05T17:01:06;5.25;;;3.40;;
6185;SDS011;3126;52.738;8.316;2023-06-05T17:06:07;6.38;;;3.17;;
6185;SDS011;3126;52.738;8.316;2023-06-05T17:11:07;5.38;;;3.75;;
6185;SDS011;3126;52.738;8.316;2023-06-05T17:16:08;5.65;;;3.80;;
6185;SDS011;3126;52.738;8.316;2023-06-05T17:21:08;5.43;;;3.88;;
6185;SDS011;3126;52.738;8.316;2023-06-05T17:26:09;5.00;;;3.53;;
6185;SDS011;3126;52.738;8.316;2023-06-05T17:31:10;6.28;;;3.47;;
6185;SDS011;3126;52.738;8.316;2023-06-05T17:36:10;5.72;;;3.50;;
6185;SDS011;3126;52.738;8.316;2023-06-05T17:41:11;5.70;;;3.80;;
6185;SDS011;3126;52.738;8.316;2023-06-05T17:46:12;5.10;;;3.45;;
6185;SDS011;3126;52.738;8.316;2023-06-05T17:51:12;5.80;;;3.83;;
6185;SDS011;3126;52.738;8.316;2023-06-05T17:56:13;3.60;;;3.30;;
6185;SDS011;3126;52.738;8.316;2023-06-05T18:01:13;6.82;;;3.60;;
6185;SDS011;3126;52.738;8.316;2023-06-05T18:06:14;5.60;;;3.88;;
6185;SDS011;3126;52.738;8.316;2023-06-05T18:11:15;4.65;;;3.67;;
6185;SDS011;3126;52.738;8.316;2023-06-05T18:16:16;5.68;;;3.50;;
6185;SDS011;3126;52.738;8.316;2023-06-05T18:21:16;7.00;;;3.63;;
6185;SDS011;3126;52.738;8.316;2023-06-05T18:26:17;5.63;;;3.70;;
6185;SDS011;3126;52.738;8.316;2023-06-05T18:31:20;4.53;;;3.70;;
6185;SDS011;3126;52.738;8.316;2023-06-05T18:36:22;6.03;;;3.67;;
6185;SDS011;3126;52.738;8.316;2023-06-05T18:41:22;5.72;;;3.97;;
6185;SDS011;3126;52.738;8.316;2023-06-05T18:46:23;4.13;;;3.72;;
6185;SDS011;3126;52.738;8.316;2023-06-05T18:51:23;6.78;;;3.50;;
6185;SDS011;3126;52.738;8.316;2023-06-05T18:56:24;4.82;;;3.13;;
6185;SDS011;3126;52.738;8.316;2023-06-05T19:01:26;6.47;;;3.40;;
6185;SDS011;3126;52.738;8.316;2023-06-05T19:06:27;8.02;;;3.78;;
6185;SDS011;3126;52.738;8.316;2023-06-05T19:11:27;6.55;;;3.42;;
6185;SDS011;3126;52.738;8.316;2023-06-05T19:16:28;5.95;;;3.50;;
6185;SDS011;3126;52.738;8.316;2023-06-05T19:26:31;4.95;;;2.88;;
6185;SDS011;3126;52.738;8.316;2023-06-05T19:31:32;9.73;;;4.07;;
6185;SDS011;3126;52.738;8.316;2023-06-05T19:36:32;4.50;;;3.47;;
6185;SDS011;3126;52.738;8.316;2023-06-05T19:41:35;5.60;;;3.60;;
6185;SDS011;3126;52.738;8.316;2023-06-05T19:46:36;9.93;;;4.20;;
6185;SDS011;3126;52.738;8.316;2023-06-05T19:51:37;6.68;;;3.88;;
6185;SDS011;3126;52.738;8.316;2023-06-05T19:56:38;7.80;;;3.83;;
6185;SDS011;3126;52.738;8.316;2023-06-05T20:01:40;5.72;;;3.67;;
6185;SDS011;3126;52.738;8.316;2023-06-05T20:06:40;7.93;;;4.40;;
6185;SDS011;3126;52.738;8.316;2023-06-05T20:11:41;4.72;;;4.20;;
6185;SDS011;3126;52.738;8.316;2023-06-05T20:16:42;7.35;;;4.13;;
6185;SDS011;3126;52.738;8.316;2023-06-05T20:21:43;7.88;;;3.78;;
6185;SDS011;3126;52.738;8.316;2023-06-05T20:26:44;7.18;;;4.22;;
6185;SDS011;3126;52.738;8.316;2023-06-05T20:31:44;7.45;;;3.83;;
6185;SDS011;3126;52.738;8.316;2023-06-05T20:36:45;7.85;;;3.97;;
6185;SDS011;3126;52.738;8.316;2023-06-05T20:41:46;6.97;;;3.75;;
6185;SDS011;3126;52.738;8.316;2023-06-05T20:46:52;7.03;;;4.07;;
6185;SDS011;3126;52.738;8.316;2023-06-05T20:51:53;6.57;;;3.97;;
6185;SDS011;3126;52.738;8.316;2023-06-05T20:56:53;6.32;;;3.88;;
6185;SDS011;3126;52.738;8.316;2023-06-05T21:01:54;8.57;;;4.35;;
6185;SDS011;3126;52.738;8.316;2023-06-05T21:06:57;5.25;;;4.22;;
6185;SDS011;3126;52.738;8.316;2023-06-05T21:11:58;5.35;;;3.92;;
6185;SDS011;3126;52.738;8.316;2023-06-05T21:16:58;8.57;;;4.47;;
6185;SDS011;3126;52.738;8.316;2023-06-05T21:21:59;5.72;;;3.40;;
6185;SDS011;3126;52.738;8.316;2023-06-05T21:27:00;10.48;;;4.57;;
6185;SDS011;3126;52.738;8.316;2023-06-05T21:32:01;6.93;;;4.22;;
6185;SDS011;3126;52.738;8.316;2023-06-05T21:37:02;7.05;;;4.32;;
6185;SDS011;3126;52.738;8.316;2023-06-05T21:42:02;6.25;;;4.78;;
6185;SDS011;3126;52.738;8.316;2023-06-05T21:47:04;8.13;;;4.47;;
6185;SDS011;3126;52.738;8.316;2023-06-05T21:52:05;9.48;;;5.10;;
6185;SDS011;3126;52.738;8.316;2023-06-05T21:57:07;8.13;;;4.60;;
6185;SDS011;3126;52.738;8.316;2023-06-05T22:02:11;7.45;;;4.38;;
6185;SDS011;3126;52.738;8.316;2023-06-05T22:07:12;8.50;;;4.50;;
6185;SDS011;3126;52.738;8.316;2023-06-05T22:12:16;6.25;;;4.95;;
6185;SDS011;3126;52.738;8.316;2023-06-05T22:17:20;9.55;;;4.53;;
6185;SDS011;3126;52.738;8.316;2023-06-05T22:22:25;7.47;;;4.90;;
6185;SDS011;3126;52.738;8.316;2023-06-05T22:27:26;7.93;;;4.82;;
6185;SDS011;3126;52.738;8.316;2023-06-05T22:32:27;9.82;;;5.68;;
6185;SDS011;3126;52.738;8.316;2023-06-05T22:37:28;11.80;;;5.40;;
6185;SDS011;3126;52.738;8.316;2023-06-05T22:42:33;7.03;;;5.03;;
6185;SDS011;3126;52.738;8.316;2023-06-05T22:47:33;8.63;;;5.03;;
6185;SDS011;3126;52.738;8.316;2023-06-05T22:52:34;9.90;;;4.80;;
6185;SDS011;3126;52.738;8.316;2023-06-05T22:57:38;9.80;;;5.15;;
6185;SDS011;3126;52.738;8.316;2023-06-05T23:02:38;7.43;;;5.25;;
6185;SDS011;3126;52.738;8.316;2023-06-05T23:07:39;9.52;;;5.32;;
6185;SDS011;3126;52.738;8.316;2023-06-05T23:12:39;8.60;;;4.93;;
6185;SDS011;3126;52.738;8.316;2023-06-05T23:17:40;10.02;;;5.78;;
6185;SDS011;3126;52.738;8.316;2023-06-05T23:22:42;10.68;;;5.38;;
6185;SDS011;3126;52.738;8.316;2023-06-05T23:27:42;8.40;;;5.30;;
6185;SDS011;3126;52.738;8.316;2023-06-05T23:32:43;6.93;;;4.97;;
6185;SDS011;3126;52.738;8.316;2023-06-05T23:37:44;9.18;;;5.15;;
6185;SDS011;3126;52.738;8.316;2023-06-05T23:42:44;6.93;;;5.10;;
6185;SDS011;3126;52.738;8.316;2023-06-05T23:47:46;9.32;;;5.43;;
6185;SDS011;3126;52.738;8.316;2023-06-05T23:52:47;10.75;;;5.82;;
6185;SDS011;3126;52.738;8.316;2023-06-05T23:57:50;7.97;;;5.57;;
